Terminal Aerodrome Forecast
Issued by NWS

Home | Current Version | Previous Version | Text Only | Print | Product List | Glossary On
Versions: 1 2 3 4 5 6 7 8 9 10 11 12 13 14 15 16 17 18 19
000
FTUS43 KDVN 252334
TAFBRL
TAF
KBRL 252334Z 2600/2624 19011KT P6SM SCT050
     FM260130 16005KT P6SM FEW080
     FM261000 19006KT 5SM BR BKN035
     FM261300 21009KT 6SM -SHRA BR BKN040=

USA.gov is the U.S. government's official web portal to all federal, state and local government web resources and services.